createdAt,value
2023-03-24T00:00:00.230Z,99701.02
2023-03-24T00:03:48.903Z,99701.15
2023-03-24T00:07:16.362Z,99703.19
2023-03-24T00:10:49.970Z,99699.06
2023-03-24T00:14:14.842Z,99700.74
2023-03-24T00:17:41.499Z,99704.55
2023-03-24T00:21:11.874Z,99704.16
2023-03-24T00:24:39.027Z,99707.26
2023-03-24T00:28:07.935Z,99703.96
2023-03-24T00:31:40.553Z,99707.38
2023-03-24T00:35:09.239Z,99708.20
2023-03-24T00:38:36.513Z,99716.05
2023-03-24T00:42:04.929Z,99711.08
2023-03-24T00:45:34.927Z,99701.77
2023-03-24T00:49:06.294Z,99691.20
2023-03-24T00:52:34.429Z,99690.16
2023-03-24T00:56:02.202Z,99687.44
2023-03-24T00:59:29.868Z,99680.31
2023-03-24T01:02:58.617Z,99675.44
2023-03-24T01:06:25.433Z,99667.30
2023-03-24T01:09:57.704Z,99665.41
2023-03-24T01:13:26.216Z,99663.65
2023-03-24T01:16:53.512Z,99656.98
2023-03-24T01:20:20.765Z,99660.45
2023-03-24T01:23:47.934Z,99659.95
2023-03-24T01:27:14.710Z,99660.36
2023-03-24T01:30:42.952Z,99655.71
2023-03-24T01:34:09.789Z,99656.39
2023-03-24T01:37:36.448Z,99651.71
2023-03-24T01:41:03.091Z,99655.69
2023-03-24T01:44:34.948Z,99648.83
2023-03-24T01:48:02.050Z,99649.46
2023-03-24T01:51:35.704Z,99653.51
2023-03-24T01:55:08.233Z,99647.15
2023-03-24T01:58:37.210Z,99641.91
2023-03-24T02:02:28.893Z,99636.80
2023-03-24T02:05:58.958Z,99631.01
2023-03-24T02:09:25.595Z,99629.41
2023-03-24T02:12:53.302Z,99628.89
2023-03-24T02:16:34.894Z,99628.11
2023-03-24T02:20:37.302Z,99621.77
2023-03-24T02:24:37.013Z,99610.67
2023-03-24T02:28:20.896Z,99606.05
2023-03-24T02:32:11.065Z,99612.80
2023-03-24T02:36:06.373Z,99613.45
2023-03-24T02:39:53.274Z,99612.94
2023-03-24T02:43:34.557Z,99612.36
2023-03-24T02:47:06.820Z,99617.09
2023-03-24T02:50:43.235Z,99614.08
2023-03-24T02:54:15.489Z,99613.72
2023-03-24T02:57:45.361Z,99613.09
2023-03-24T03:01:20.864Z,99610.54
2023-03-24T03:05:20.165Z,99612.80
2023-03-24T03:08:49.341Z,99611.48
2023-03-24T03:12:20.066Z,99607.33
2023-03-24T03:15:51.380Z,99598.95
2023-03-24T03:19:22.231Z,99593.84
2023-03-24T03:22:52.641Z,99590.70
2023-03-24T03:26:24.380Z,99587.77
2023-03-24T03:29:55.285Z,99587.41
2023-03-24T03:33:27.368Z,99592.15
2023-03-24T03:37:01.145Z,99589.39
2023-03-24T03:40:32.887Z,99586.22
2023-03-24T03:44:05.664Z,99578.16
2023-03-24T03:47:33.804Z,99574.60
2023-03-24T03:51:12.843Z,99570.14
2023-03-24T03:54:45.137Z,99566.02
2023-03-24T03:58:12.660Z,99563.79
2023-03-24T04:01:44.688Z,99560.95
2023-03-24T04:05:31.949Z,99555.59
2023-03-24T04:09:18.088Z,99549.31
2023-03-24T04:13:08.409Z,99543.95
2023-03-24T04:17:06.274Z,99539.85
2023-03-24T04:20:48.245Z,99532.91
2023-03-24T04:24:27.628Z,99536.42
2023-03-24T04:28:02.433Z,99537.66
2023-03-24T04:31:34.486Z,99525.05
2023-03-24T04:35:07.310Z,99512.06
2023-03-24T04:38:57.580Z,99509.91
2023-03-24T04:42:38.722Z,99510.79
2023-03-24T04:46:09.118Z,99498.45
2023-03-24T04:50:01.385Z,99497.21
2023-03-24T04:53:30.200Z,99490.55
2023-03-24T04:56:59.366Z,99487.89
2023-03-24T05:00:33.820Z,99482.05
2023-03-24T05:04:01.411Z,99481.27
2023-03-24T05:07:28.748Z,99474.31
2023-03-24T05:10:58.969Z,99469.52
2023-03-24T05:14:26.697Z,99467.58
2023-03-24T05:17:53.986Z,99466.77
2023-03-24T05:21:23.471Z,99464.02
2023-03-24T05:24:50.472Z,99458.56
2023-03-24T05:28:17.362Z,99451.75
2023-03-24T05:31:45.398Z,99451.64
2023-03-24T05:35:21.026Z,99450.70
2023-03-24T05:38:49.236Z,99452.73
2023-03-24T05:42:17.314Z,99452.20
2023-03-24T05:45:45.455Z,99446.80
2023-03-24T05:49:18.940Z,99440.07
2023-03-24T05:52:48.678Z,99433.91
2023-03-24T05:56:31.611Z,99431.11
2023-03-24T06:00:01.190Z,99424.37
2023-03-24T06:03:51.563Z,99421.47
2023-03-24T06:07:19.324Z,99418.66
2023-03-24T06:10:46.934Z,99416.23
2023-03-24T06:14:13.895Z,99412.14
2023-03-24T06:17:55.011Z,99403.91
2023-03-24T06:21:32.563Z,99401.91
2023-03-24T06:25:05.148Z,99402.48
2023-03-24T06:28:34.712Z,99396.27
2023-03-24T06:32:05.786Z,99391.67
2023-03-24T06:35:38.883Z,99392.05
2023-03-24T06:39:09.666Z,99392.27
2023-03-24T06:42:36.909Z,99389.10
2023-03-24T06:46:03.856Z,99385.46
2023-03-24T06:49:30.471Z,99379.55
2023-03-24T06:52:57.052Z,99374.24
2023-03-24T06:56:25.113Z,99374.43
2023-03-24T06:59:55.827Z,99365.05
2023-03-24T07:03:25.329Z,99374.60
2023-03-24T07:07:57.082Z,99370.43
2023-03-24T07:11:26.132Z,99367.71
2023-03-24T07:14:56.082Z,99365.93
2023-03-24T07:18:23.459Z,99367.75
2023-03-24T07:21:56.609Z,99364.47
2023-03-24T07:25:34.587Z,99368.92
2023-03-24T07:29:24.419Z,99367.30
2023-03-24T07:33:15.704Z,99363.02
2023-03-24T07:36:44.794Z,99354.64
2023-03-24T07:40:22.881Z,99342.73
2023-03-24T07:43:50.297Z,99345.31
2023-03-24T07:47:24.989Z,99343.30
2023-03-24T07:50:53.630Z,99341.77
2023-03-24T07:54:49.451Z,99337.04
2023-03-24T07:58:34.056Z,99330.13
2023-03-24T08:02:22.471Z,99320.93
2023-03-24T08:06:22.026Z,99311.10
2023-03-24T08:09:55.955Z,99300.52
2023-03-24T08:13:22.800Z,99296.48
2023-03-24T08:16:50.784Z,99287.18
2023-03-24T08:20:19.501Z,99279.94
2023-03-24T08:23:46.102Z,99279.09
2023-03-24T08:27:13.115Z,99271.44
2023-03-24T08:30:46.483Z,99270.09
2023-03-24T08:34:14.449Z,99271.15
2023-03-24T08:37:42.615Z,99268.39
2023-03-24T08:41:10.094Z,99264.52
2023-03-24T08:44:37.717Z,99263.17
2023-03-24T08:48:07.273Z,99260.67
2023-03-24T08:51:35.002Z,99255.70
2023-03-24T08:55:02.470Z,99244.20
2023-03-24T08:58:32.800Z,99243.23
2023-03-24T09:01:59.257Z,99237.83
2023-03-24T09:05:37.067Z,99225.04
2023-03-24T09:09:10.208Z,99223.69
2023-03-24T09:12:37.176Z,99215.74
2023-03-24T09:16:05.107Z,99209.58
2023-03-24T09:19:34.358Z,99205.89
2023-03-24T09:23:01.728Z,99202.05
2023-03-24T09:26:28.622Z,99206.10
2023-03-24T09:29:55.740Z,99199.55
2023-03-24T09:33:25.081Z,99199.79
2023-03-24T09:36:52.319Z,99192.48
2023-03-24T09:40:23.294Z,99188.58
2023-03-24T09:43:58.429Z,99186.65
2023-03-24T09:47:31.864Z,99188.08
2023-03-24T09:51:02.536Z,99183.78
2023-03-24T09:54:38.428Z,99176.61
2023-03-24T09:58:09.433Z,99171.50
2023-03-24T10:01:40.324Z,99160.38
2023-03-24T10:05:16.762Z,99157.45
2023-03-24T10:08:50.303Z,99148.95
2023-03-24T10:12:31.418Z,99151.00
2023-03-24T10:16:08.019Z,99146.56
2023-03-24T10:19:45.585Z,99142.90
2023-03-24T10:23:26.400Z,99136.34
2023-03-24T10:27:03.779Z,99140.30
2023-03-24T10:30:34.598Z,99135.79
2023-03-24T10:34:02.487Z,99135.46
2023-03-24T10:37:32.291Z,99131.89
2023-03-24T10:41:00.054Z,99129.46
2023-03-24T10:44:27.274Z,99122.34
2023-03-24T10:47:55.080Z,99116.64
2023-03-24T10:51:24.539Z,99106.34
2023-03-24T10:54:59.551Z,99108.98
2023-03-24T10:58:37.891Z,99104.70
2023-03-24T11:02:17.761Z,99102.80
2023-03-24T11:05:45.097Z,99105.07
2023-03-24T11:09:18.931Z,99101.98
2023-03-24T11:13:02.649Z,99104.25
2023-03-24T11:16:37.216Z,99106.92
2023-03-24T11:20:06.420Z,99099.33
2023-03-24T11:23:36.115Z,99100.73
2023-03-24T11:27:04.308Z,99098.18
2023-03-24T11:30:35.892Z,99095.36
2023-03-24T11:34:09.261Z,99093.74
2023-03-24T11:37:35.596Z,99090.39
2023-03-24T11:41:06.137Z,99083.67
2023-03-24T11:44:43.185Z,99086.91
2023-03-24T11:48:21.201Z,99088.73
2023-03-24T11:51:53.158Z,99085.27
2023-03-24T11:55:25.761Z,99081.20
2023-03-24T11:58:56.962Z,99082.98
2023-03-24T12:02:39.343Z,99085.76
2023-03-24T12:06:15.720Z,99095.45
2023-03-24T12:09:48.660Z,99100.89
2023-03-24T12:13:31.803Z,99101.54
2023-03-24T12:17:06.718Z,99103.07
2023-03-24T12:20:39.126Z,99099.30
2023-03-24T12:24:17.611Z,99097.19
2023-03-24T12:27:54.290Z,99094.81
2023-03-24T12:31:42.063Z,99098.02
2023-03-24T12:35:38.951Z,99101.23
2023-03-24T12:39:13.161Z,99111.91
2023-03-24T12:42:40.617Z,99112.33
2023-03-24T12:46:15.996Z,99110.32
2023-03-24T12:50:05.899Z,99111.73
2023-03-24T12:53:43.633Z,99113.66
2023-03-24T12:57:15.735Z,99104.94
2023-03-24T13:00:47.756Z,99094.95
2023-03-24T13:04:21.249Z,99097.20
2023-03-24T13:07:54.349Z,99088.21
2023-03-24T13:11:33.250Z,99082.19
2023-03-24T13:15:15.209Z,99081.42
2023-03-24T13:18:45.381Z,99076.20
2023-03-24T13:22:18.127Z,99072.34
2023-03-24T13:25:52.945Z,99071.51
2023-03-24T13:29:55.845Z,99068.44
2023-03-24T13:33:26.799Z,99068.70
2023-03-24T13:36:57.649Z,99067.15
2023-03-24T13:40:28.073Z,99060.55
2023-03-24T13:44:02.343Z,99062.55
2023-03-24T13:47:32.052Z,99062.19
2023-03-24T13:51:01.948Z,99060.16
2023-03-24T13:54:30.993Z,99058.87
2023-03-24T13:58:02.000Z,99058.56
2023-03-24T14:01:41.100Z,99060.35
2023-03-24T14:05:10.217Z,99053.09
2023-03-24T14:08:56.083Z,99061.16
2023-03-24T14:12:27.396Z,99056.28
2023-03-24T14:15:56.725Z,99055.75
2023-03-24T14:19:31.404Z,99050.52
2023-03-24T14:22:58.606Z,99049.67
2023-03-24T14:26:36.944Z,99042.80
2023-03-24T14:30:13.679Z,99028.73
2023-03-24T14:33:41.667Z,99024.12
2023-03-24T14:37:11.367Z,99023.40
2023-03-24T14:40:40.350Z,99035.50
2023-03-24T14:44:10.491Z,99027.96
2023-03-24T14:47:39.932Z,99025.83
2023-03-24T14:51:18.286Z,99028.16
2023-03-24T14:54:53.697Z,99042.37
2023-03-24T14:58:28.271Z,99039.18
2023-03-24T15:02:00.892Z,99041.45
2023-03-24T15:05:32.230Z,99049.52
2023-03-24T15:09:01.436Z,99052.72
2023-03-24T15:12:28.531Z,99062.95
2023-03-24T15:15:58.818Z,99063.81
2023-03-24T15:19:28.991Z,99065.11
2023-03-24T15:22:56.434Z,99055.73
2023-03-24T15:26:24.704Z,99053.80
2023-03-24T15:29:59.250Z,99050.93
2023-03-24T15:33:31.280Z,99035.39
2023-03-24T15:37:00.017Z,99037.23
2023-03-24T15:40:39.316Z,99048.85
2023-03-24T15:44:11.331Z,99053.28
2023-03-24T15:47:43.287Z,99052.86
2023-03-24T15:51:12.758Z,99052.60
2023-03-24T15:54:43.126Z,99049.83
2023-03-24T15:58:27.199Z,99046.14
2023-03-24T16:01:54.555Z,99037.05
2023-03-24T16:05:26.172Z,99036.21
2023-03-24T16:08:52.782Z,99033.11
2023-03-24T16:12:19.737Z,99029.00
2023-03-24T16:15:49.867Z,99028.03
2023-03-24T16:19:16.787Z,99022.33
2023-03-24T16:22:43.891Z,99018.09
2023-03-24T16:26:13.918Z,99017.23
2023-03-24T16:29:40.899Z,99022.67
2023-03-24T16:33:08.821Z,99025.04
2023-03-24T16:36:36.439Z,99032.30
2023-03-24T16:40:03.898Z,99038.27
2023-03-24T16:43:33.570Z,99035.47
2023-03-24T16:47:01.112Z,99033.77
2023-03-24T16:50:33.695Z,99033.38
2023-03-24T16:54:00.915Z,99032.05
2023-03-24T16:57:28.049Z,99029.90
2023-03-24T17:00:59.042Z,99032.87
2023-03-24T17:04:27.695Z,99038.48
2023-03-24T17:07:55.813Z,99042.78
2023-03-24T17:11:30.599Z,99053.73
2023-03-24T17:14:57.296Z,99088.41
2023-03-24T17:18:25.075Z,99087.81
2023-03-24T17:21:58.101Z,99099.90
2023-03-24T17:25:29.480Z,99121.02
2023-03-24T17:28:56.928Z,99133.81
2023-03-24T17:32:29.925Z,99137.63
2023-03-24T17:35:57.059Z,99126.77
2023-03-24T17:39:24.948Z,99122.98
2023-03-24T17:42:54.750Z,99127.71
2023-03-24T17:46:22.566Z,99123.15
2023-03-24T17:49:49.518Z,99135.14
2023-03-24T17:53:17.783Z,99141.81
2023-03-24T17:56:44.902Z,99139.51
2023-03-24T18:00:15.162Z,99149.11
2023-03-24T18:03:45.071Z,99158.03
2023-03-24T18:07:12.213Z,99167.83
2023-03-24T18:10:39.918Z,99186.72
2023-03-24T18:14:09.412Z,99185.04
2023-03-24T18:17:37.811Z,99189.15
2023-03-24T18:21:05.169Z,99158.17
2023-03-24T18:24:32.499Z,99135.58
2023-03-24T18:27:59.089Z,99130.77
2023-03-24T18:31:26.596Z,99118.42
2023-03-24T18:34:55.290Z,99116.23
2023-03-24T18:38:22.894Z,99127.31
2023-03-24T18:41:53.655Z,99141.91
2023-03-24T18:45:21.240Z,99148.73
2023-03-24T18:48:49.246Z,99145.52
2023-03-24T18:52:18.425Z,99143.61
2023-03-24T18:55:51.992Z,99143.05
2023-03-24T18:59:20.351Z,99146.55
2023-03-24T19:02:49.246Z,99157.05
2023-03-24T19:06:17.786Z,99165.63
2023-03-24T19:09:46.223Z,99163.42
2023-03-24T19:13:14.922Z,99169.91
2023-03-24T19:16:42.032Z,99179.75
2023-03-24T19:20:12.106Z,99181.37
2023-03-24T19:23:41.989Z,99187.78
2023-03-24T19:27:08.776Z,99188.44
2023-03-24T19:30:38.824Z,99186.19
2023-03-24T19:34:06.396Z,99189.73
2023-03-24T19:37:34.649Z,99197.16
2023-03-24T19:41:08.087Z,99204.49
2023-03-24T19:44:35.043Z,99212.02
2023-03-24T19:48:01.844Z,99214.80
2023-03-24T19:51:29.934Z,99211.95
2023-03-24T19:54:56.818Z,99215.26
2023-03-24T19:58:25.400Z,99220.55
2023-03-24T20:01:52.343Z,99209.36
2023-03-24T20:05:19.634Z,99202.55
2023-03-24T20:08:47.525Z,99199.11
2023-03-24T20:12:14.278Z,99205.13
2023-03-24T20:15:41.152Z,99204.01
2023-03-24T20:19:08.221Z,99204.39
2023-03-24T20:22:36.903Z,99197.21
2023-03-24T20:26:04.348Z,99200.82
2023-03-24T20:29:31.954Z,99201.05
2023-03-24T20:32:59.901Z,99212.86
2023-03-24T20:36:27.061Z,99212.52
2023-03-24T20:39:55.289Z,99213.86
2023-03-24T20:43:21.775Z,99216.30
2023-03-24T20:46:49.244Z,99220.91
2023-03-24T20:50:16.348Z,99226.89
2023-03-24T20:53:45.121Z,99228.19
2023-03-24T20:57:13.276Z,99233.71
2023-03-24T21:00:42.232Z,99234.83
2023-03-24T21:04:10.991Z,99241.91
2023-03-24T21:07:44.098Z,99242.93
2023-03-24T21:11:12.949Z,99240.80
2023-03-24T21:14:41.650Z,99237.05
2023-03-24T21:18:09.896Z,99230.63
2023-03-24T21:21:38.429Z,99233.50
2023-03-24T21:25:06.786Z,99241.87
2023-03-24T21:28:34.328Z,99244.70
2023-03-24T21:32:01.402Z,99251.27
2023-03-24T21:35:29.004Z,99253.25
2023-03-24T21:38:56.785Z,99252.05
2023-03-24T21:42:30.977Z,99250.61
2023-03-24T21:45:59.494Z,99244.17
2023-03-24T21:49:30.487Z,99255.58
2023-03-24T21:52:59.469Z,99261.35
2023-03-24T21:56:33.127Z,99264.53
2023-03-24T22:00:13.270Z,99263.65
2023-03-24T22:03:40.866Z,99261.61
2023-03-24T22:07:16.002Z,99266.95
2023-03-24T22:10:46.385Z,99271.94
2023-03-24T22:14:16.922Z,99274.20
2023-03-24T22:17:45.423Z,99281.01
2023-03-24T22:21:17.286Z,99275.52
2023-03-24T22:24:44.911Z,99275.54
2023-03-24T22:28:12.151Z,99272.68
2023-03-24T22:31:43.908Z,99272.67
2023-03-24T22:35:14.540Z,99280.03
2023-03-24T22:38:53.632Z,99286.64
2023-03-24T22:42:31.935Z,99288.43
2023-03-24T22:46:20.351Z,99289.17
2023-03-24T22:50:00.108Z,99289.30
2023-03-24T22:53:28.232Z,99292.27
2023-03-24T22:56:55.653Z,99293.68
2023-03-24T23:00:31.065Z,99309.42
2023-03-24T23:03:59.560Z,99311.80
2023-03-24T23:07:33.682Z,99309.83
2023-03-24T23:11:06.928Z,99310.13
2023-03-24T23:14:34.769Z,99309.08
2023-03-24T23:18:07.336Z,99319.35
2023-03-24T23:21:35.626Z,99323.48
2023-03-24T23:25:04.262Z,99321.11
2023-03-24T23:28:32.513Z,99305.69
2023-03-24T23:32:00.033Z,99299.52
2023-03-24T23:35:26.980Z,99297.29
2023-03-24T23:38:55.944Z,99294.48
2023-03-24T23:42:25.582Z,99295.14
2023-03-24T23:45:58.032Z,99290.30
2023-03-24T23:49:25.098Z,99292.00
2023-03-24T23:52:52.266Z,99286.46
2023-03-24T23:56:22.244Z,99280.95
2023-03-24T23:59:53.211Z,99282.97
